sensor_id;sensor_type;location;lat;lon;timestamp;P1;durP1;ratioP1;P2;durP2;ratioP2
62258;SDS011;48241;48.824;10.102;2022-09-03T00:00:20;1.40;;;1.10;;
62258;SDS011;48241;48.824;10.102;2022-09-03T00:05:37;1.20;;;1.00;;
62258;SDS011;48241;48.824;10.102;2022-09-03T00:13:19;0.98;;;0.90;;
62258;SDS011;48241;48.824;10.102;2022-09-03T00:15:53;1.70;;;1.13;;
62258;SDS011;48241;48.824;10.102;2022-09-03T00:18:22;2.30;;;1.30;;
62258;SDS011;48241;48.824;10.102;2022-09-03T00:20:56;2.47;;;1.13;;
62258;SDS011;48241;48.824;10.102;2022-09-03T00:23:32;3.38;;;1.35;;
62258;SDS011;48241;48.824;10.102;2022-09-03T00:31:24;1.45;;;1.10;;
62258;SDS011;48241;48.824;10.102;2022-09-03T00:34:07;3.97;;;1.10;;
62258;SDS011;48241;48.824;10.102;2022-09-03T00:36:54;1.42;;;1.30;;
62258;SDS011;48241;48.824;10.102;2022-09-03T00:39:22;2.47;;;0.90;;
62258;SDS011;48241;48.824;10.102;2022-09-03T00:44:40;1.13;;;0.90;;
62258;SDS011;48241;48.824;10.102;2022-09-03T00:55:44;1.45;;;1.10;;
62258;SDS011;48241;48.824;10.102;2022-09-03T01:01:17;1.95;;;0.95;;
62258;SDS011;48241;48.824;10.102;2022-09-03T01:04:00;1.77;;;1.00;;
62258;SDS011;48241;48.824;10.102;2022-09-03T01:15:17;1.50;;;1.00;;
62258;SDS011;48241;48.824;10.102;2022-09-03T01:20:33;1.38;;;1.15;;
62258;SDS011;48241;48.824;10.102;2022-09-03T01:28:42;1.20;;;1.10;;
62258;SDS011;48241;48.824;10.102;2022-09-03T01:31:37;1.70;;;1.20;;
62258;SDS011;48241;48.824;10.102;2022-09-03T01:34:19;2.15;;;1.27;;
62258;SDS011;48241;48.824;10.102;2022-09-03T01:48:40;3.50;;;1.20;;
62258;SDS011;48241;48.824;10.102;2022-09-03T01:59:42;2.13;;;1.20;;
62258;SDS011;48241;48.824;10.102;2022-09-03T02:02:17;1.40;;;1.20;;
62258;SDS011;48241;48.824;10.102;2022-09-03T02:05:10;2.35;;;1.20;;
62258;SDS011;48241;48.824;10.102;2022-09-03T02:07:42;1.77;;;1.35;;
62258;SDS011;48241;48.824;10.102;2022-09-03T02:10:32;2.42;;;1.45;;
62258;SDS011;48241;48.824;10.102;2022-09-03T02:15:40;2.95;;;1.40;;
62258;SDS011;48241;48.824;10.102;2022-09-03T02:18:12;2.50;;;1.50;;
62258;SDS011;48241;48.824;10.102;2022-09-03T02:20:44;2.42;;;1.30;;
62258;SDS011;48241;48.824;10.102;2022-09-03T02:23:12;1.40;;;1.30;;
62258;SDS011;48241;48.824;10.102;2022-09-03T02:25:39;3.83;;;1.30;;
62258;SDS011;48241;48.824;10.102;2022-09-03T02:28:08;1.77;;;1.15;;
62258;SDS011;48241;48.824;10.102;2022-09-03T02:30:34;2.90;;;1.10;;
62258;SDS011;48241;48.824;10.102;2022-09-03T02:33:00;1.48;;;1.20;;
62258;SDS011;48241;48.824;10.102;2022-09-03T02:35:26;1.95;;;1.08;;
62258;SDS011;48241;48.824;10.102;2022-09-03T02:37:52;1.48;;;1.27;;
62258;SDS011;48241;48.824;10.102;2022-09-03T02:40:18;3.25;;;1.00;;
62258;SDS011;48241;48.824;10.102;2022-09-03T02:42:43;2.75;;;1.50;;
62258;SDS011;48241;48.824;10.102;2022-09-03T02:45:26;2.78;;;1.30;;
62258;SDS011;48241;48.824;10.102;2022-09-03T02:47:54;1.77;;;1.30;;
62258;SDS011;48241;48.824;10.102;2022-09-03T02:50:21;2.45;;;1.45;;
62258;SDS011;48241;48.824;10.102;2022-09-03T02:52:46;2.38;;;1.30;;
62258;SDS011;48241;48.824;10.102;2022-09-03T02:55:12;2.67;;;1.35;;
62258;SDS011;48241;48.824;10.102;2022-09-03T02:57:38;5.63;;;1.70;;
62258;SDS011;48241;48.824;10.102;2022-09-03T03:00:03;2.83;;;1.20;;
62258;SDS011;48241;48.824;10.102;2022-09-03T03:02:29;2.05;;;1.40;;
62258;SDS011;48241;48.824;10.102;2022-09-03T03:04:55;2.15;;;1.42;;
62258;SDS011;48241;48.824;10.102;2022-09-03T03:07:20;1.83;;;1.20;;
62258;SDS011;48241;48.824;10.102;2022-09-03T03:09:46;3.22;;;1.40;;
62258;SDS011;48241;48.824;10.102;2022-09-03T03:12:12;3.50;;;1.20;;
62258;SDS011;48241;48.824;10.102;2022-09-03T03:14:41;2.25;;;1.40;;
62258;SDS011;48241;48.824;10.102;2022-09-03T03:17:07;2.05;;;1.27;;
62258;SDS011;48241;48.824;10.102;2022-09-03T03:19:33;2.65;;;1.55;;
62258;SDS011;48241;48.824;10.102;2022-09-03T03:21:59;2.42;;;1.40;;
62258;SDS011;48241;48.824;10.102;2022-09-03T03:24:24;1.67;;;1.20;;
62258;SDS011;48241;48.824;10.102;2022-09-03T03:26:50;1.70;;;1.30;;
62258;SDS011;48241;48.824;10.102;2022-09-03T03:29:18;1.67;;;1.40;;
62258;SDS011;48241;48.824;10.102;2022-09-03T03:31:44;2.05;;;1.40;;
62258;SDS011;48241;48.824;10.102;2022-09-03T03:34:10;1.67;;;1.42;;
62258;SDS011;48241;48.824;10.102;2022-09-03T03:36:35;2.95;;;1.77;;
62258;SDS011;48241;48.824;10.102;2022-09-03T03:39:02;2.58;;;1.38;;
62258;SDS011;48241;48.824;10.102;2022-09-03T03:41:32;2.22;;;1.58;;
62258;SDS011;48241;48.824;10.102;2022-09-03T03:44:04;2.03;;;1.50;;
62258;SDS011;48241;48.824;10.102;2022-09-03T03:46:31;1.50;;;1.40;;
62258;SDS011;48241;48.824;10.102;2022-09-03T03:49:01;3.83;;;1.67;;
62258;SDS011;48241;48.824;10.102;2022-09-03T03:51:27;3.05;;;1.50;;
62258;SDS011;48241;48.824;10.102;2022-09-03T03:53:54;2.97;;;1.70;;
62258;SDS011;48241;48.824;10.102;2022-09-03T03:56:21;2.03;;;1.50;;
62258;SDS011;48241;48.824;10.102;2022-09-03T03:58:47;1.60;;;1.42;;
62258;SDS011;48241;48.824;10.102;2022-09-03T04:01:14;3.78;;;1.73;;
62258;SDS011;48241;48.824;10.102;2022-09-03T04:03:41;2.80;;;1.60;;
62258;SDS011;48241;48.824;10.102;2022-09-03T04:06:08;2.42;;;1.55;;
62258;SDS011;48241;48.824;10.102;2022-09-03T04:08:35;2.80;;;1.75;;
62258;SDS011;48241;48.824;10.102;2022-09-03T04:11:03;1.73;;;1.40;;
62258;SDS011;48241;48.824;10.102;2022-09-03T04:13:31;2.38;;;1.58;;
62258;SDS011;48241;48.824;10.102;2022-09-03T04:16:07;3.15;;;1.58;;
62258;SDS011;48241;48.824;10.102;2022-09-03T04:18:40;2.40;;;1.48;;
62258;SDS011;48241;48.824;10.102;2022-09-03T04:21:07;1.98;;;1.38;;
62258;SDS011;48241;48.824;10.102;2022-09-03T04:23:35;3.65;;;1.80;;
62258;SDS011;48241;48.824;10.102;2022-09-03T04:26:03;2.05;;;1.40;;
62258;SDS011;48241;48.824;10.102;2022-09-03T04:28:29;3.17;;;1.70;;
62258;SDS011;48241;48.824;10.102;2022-09-03T04:30:59;2.65;;;1.70;;
62258;SDS011;48241;48.824;10.102;2022-09-03T04:33:31;2.45;;;1.48;;
62258;SDS011;48241;48.824;10.102;2022-09-03T04:36:08;1.80;;;1.65;;
62258;SDS011;48241;48.824;10.102;2022-09-03T04:38:45;2.45;;;1.67;;
62258;SDS011;48241;48.824;10.102;2022-09-03T04:41:12;2.95;;;1.67;;
62258;SDS011;48241;48.824;10.102;2022-09-03T04:43:40;2.60;;;1.35;;
62258;SDS011;48241;48.824;10.102;2022-09-03T04:46:08;1.98;;;1.55;;
62258;SDS011;48241;48.824;10.102;2022-09-03T04:48:35;4.03;;;1.70;;
62258;SDS011;48241;48.824;10.102;2022-09-03T04:51:11;2.08;;;1.63;;
62258;SDS011;48241;48.824;10.102;2022-09-03T04:53:43;4.30;;;1.83;;
62258;SDS011;48241;48.824;10.102;2022-09-03T04:58:42;3.73;;;1.67;;
62258;SDS011;48241;48.824;10.102;2022-09-03T05:01:14;5.88;;;1.83;;
62258;SDS011;48241;48.824;10.102;2022-09-03T05:03:42;2.85;;;1.45;;
62258;SDS011;48241;48.824;10.102;2022-09-03T05:06:08;2.10;;;1.67;;
62258;SDS011;48241;48.824;10.102;2022-09-03T05:08:34;3.78;;;1.60;;
62258;SDS011;48241;48.824;10.102;2022-09-03T05:11:02;3.47;;;1.85;;
62258;SDS011;48241;48.824;10.102;2022-09-03T05:13:28;3.53;;;1.55;;
62258;SDS011;48241;48.824;10.102;2022-09-03T05:16:01;3.38;;;1.58;;
62258;SDS011;48241;48.824;10.102;2022-09-03T05:18:28;2.92;;;1.60;;
62258;SDS011;48241;48.824;10.102;2022-09-03T05:21:00;2.10;;;1.50;;
62258;SDS011;48241;48.824;10.102;2022-09-03T05:23:28;2.67;;;1.63;;
62258;SDS011;48241;48.824;10.102;2022-09-03T05:25:58;2.58;;;1.88;;
62258;SDS011;48241;48.824;10.102;2022-09-03T05:28:26;2.75;;;1.80;;
62258;SDS011;48241;48.824;10.102;2022-09-03T05:30:58;4.80;;;2.05;;
62258;SDS011;48241;48.824;10.102;2022-09-03T05:33:24;3.83;;;1.52;;
62258;SDS011;48241;48.824;10.102;2022-09-03T05:35:51;3.10;;;1.50;;
62258;SDS011;48241;48.824;10.102;2022-09-03T05:38:18;2.78;;;1.63;;
62258;SDS011;48241;48.824;10.102;2022-09-03T05:40:43;2.78;;;1.70;;
62258;SDS011;48241;48.824;10.102;2022-09-03T05:43:09;4.70;;;1.88;;
62258;SDS011;48241;48.824;10.102;2022-09-03T05:45:35;1.95;;;1.60;;
62258;SDS011;48241;48.824;10.102;2022-09-03T05:48:01;3.55;;;1.80;;
62258;SDS011;48241;48.824;10.102;2022-09-03T05:50:27;4.70;;;2.05;;
62258;SDS011;48241;48.824;10.102;2022-09-03T05:52:52;3.22;;;1.65;;
62258;SDS011;48241;48.824;10.102;2022-09-03T05:55:18;3.53;;;1.92;;
62258;SDS011;48241;48.824;10.102;2022-09-03T05:57:44;4.50;;;1.88;;
62258;SDS011;48241;48.824;10.102;2022-09-03T06:00:10;2.92;;;1.90;;
62258;SDS011;48241;48.824;10.102;2022-09-03T06:02:36;2.65;;;1.60;;
62258;SDS011;48241;48.824;10.102;2022-09-03T06:05:02;4.22;;;1.90;;
62258;SDS011;48241;48.824;10.102;2022-09-03T06:07:27;4.95;;;1.92;;
62258;SDS011;48241;48.824;10.102;2022-09-03T06:09:53;2.67;;;1.77;;
62258;SDS011;48241;48.824;10.102;2022-09-03T06:12:19;3.83;;;1.92;;
62258;SDS011;48241;48.824;10.102;2022-09-03T06:14:44;3.33;;;1.50;;
62258;SDS011;48241;48.824;10.102;2022-09-03T06:17:10;1.80;;;1.48;;
62258;SDS011;48241;48.824;10.102;2022-09-03T06:19:36;2.42;;;1.65;;
62258;SDS011;48241;48.824;10.102;2022-09-03T06:22:02;1.90;;;1.67;;
62258;SDS011;48241;48.824;10.102;2022-09-03T06:24:28;3.25;;;1.77;;
62258;SDS011;48241;48.824;10.102;2022-09-03T06:30:56;3.97;;;1.73;;
62258;SDS011;48241;48.824;10.102;2022-09-03T06:34:08;3.03;;;1.75;;
62258;SDS011;48241;48.824;10.102;2022-09-03T10:50:47;2.47;;;1.88;;
62258;SDS011;48241;48.824;10.102;2022-09-03T10:59:10;4.35;;;1.80;;
62258;SDS011;48241;48.824;10.102;2022-09-03T11:01:50;2.33;;;1.70;;
62258;SDS011;48241;48.824;10.102;2022-09-03T11:04:42;2.83;;;1.67;;
62258;SDS011;48241;48.824;10.102;2022-09-03T11:07:19;2.65;;;1.73;;
62258;SDS011;48241;48.824;10.102;2022-09-03T11:09:54;1.80;;;1.70;;
62258;SDS011;48241;48.824;10.102;2022-09-03T11:12:27;2.15;;;1.70;;
62258;SDS011;48241;48.824;10.102;2022-09-03T11:15:04;1.90;;;1.80;;
62258;SDS011;48241;48.824;10.102;2022-09-03T11:17:43;2.75;;;1.83;;
62258;SDS011;48241;48.824;10.102;2022-09-03T11:20:17;2.97;;;2.28;;
62258;SDS011;48241;48.824;10.102;2022-09-03T11:22:46;2.30;;;2.10;;
62258;SDS011;48241;48.824;10.102;2022-09-03T11:25:14;1.85;;;1.73;;
62258;SDS011;48241;48.824;10.102;2022-09-03T11:27:56;4.70;;;2.05;;
62258;SDS011;48241;48.824;10.102;2022-09-03T11:33:13;3.17;;;2.20;;
62258;SDS011;48241;48.824;10.102;2022-09-03T11:35:42;3.83;;;1.95;;
62258;SDS011;48241;48.824;10.102;2022-09-03T11:40:42;3.13;;;2.17;;
62258;SDS011;48241;48.824;10.102;2022-09-03T11:43:40;1.80;;;1.70;;
62258;SDS011;48241;48.824;10.102;2022-09-03T11:46:25;2.97;;;2.00;;
62258;SDS011;48241;48.824;10.102;2022-09-03T11:49:08;2.17;;;1.98;;
62258;SDS011;48241;48.824;10.102;2022-09-03T11:51:37;2.20;;;1.90;;
62258;SDS011;48241;48.824;10.102;2022-09-03T11:56:37;3.20;;;2.10;;
62258;SDS011;48241;48.824;10.102;2022-09-03T11:59:25;3.03;;;1.88;;
62258;SDS011;48241;48.824;10.102;2022-09-03T12:13:24;2.88;;;1.83;;
62258;SDS011;48241;48.824;10.102;2022-09-03T12:21:53;2.00;;;1.80;;
62258;SDS011;48241;48.824;10.102;2022-09-03T12:24:20;2.28;;;1.70;;
62258;SDS011;48241;48.824;10.102;2022-09-03T12:26:47;1.80;;;1.70;;
62258;SDS011;48241;48.824;10.102;2022-09-03T12:29:24;1.90;;;1.60;;
62258;SDS011;48241;48.824;10.102;2022-09-03T12:31:51;1.90;;;1.80;;
62258;SDS011;48241;48.824;10.102;2022-09-03T12:34:18;1.90;;;1.80;;
62258;SDS011;48241;48.824;10.102;2022-09-03T12:36:46;3.10;;;1.70;;
62258;SDS011;48241;48.824;10.102;2022-09-03T12:39:18;4.00;;;2.00;;
62258;SDS011;48241;48.824;10.102;2022-09-03T12:41:55;2.97;;;1.52;;
62258;SDS011;48241;48.824;10.102;2022-09-03T12:44:28;2.00;;;1.80;;
62258;SDS011;48241;48.824;10.102;2022-09-03T12:49:33;6.03;;;2.00;;
62258;SDS011;48241;48.824;10.102;2022-09-03T12:52:07;2.13;;;1.92;;
62258;SDS011;48241;48.824;10.102;2022-09-03T12:55:01;3.17;;;2.10;;
62258;SDS011;48241;48.824;10.102;2022-09-03T12:57:34;3.45;;;2.03;;
62258;SDS011;48241;48.824;10.102;2022-09-03T13:00:07;3.97;;;2.20;;
62258;SDS011;48241;48.824;10.102;2022-09-03T13:02:51;2.22;;;2.00;;
62258;SDS011;48241;48.824;10.102;2022-09-03T13:05:34;2.50;;;2.30;;
62258;SDS011;48241;48.824;10.102;2022-09-03T13:08:24;2.67;;;2.17;;
62258;SDS011;48241;48.824;10.102;2022-09-03T13:10:54;5.22;;;2.40;;
62258;SDS011;48241;48.824;10.102;2022-09-03T13:13:24;5.03;;;2.30;;
62258;SDS011;48241;48.824;10.102;2022-09-03T13:19:04;2.92;;;1.50;;
62258;SDS011;48241;48.824;10.102;2022-09-03T13:25:13;7.47;;;1.45;;
62258;SDS011;48241;48.824;10.102;2022-09-03T13:30:22;4.25;;;1.40;;
62258;SDS011;48241;48.824;10.102;2022-09-03T13:33:42;2.80;;;1.67;;
62258;SDS011;48241;48.824;10.102;2022-09-03T13:36:15;4.22;;;1.45;;
62258;SDS011;48241;48.824;10.102;2022-09-03T13:38:49;9.45;;;1.60;;
62258;SDS011;48241;48.824;10.102;2022-09-03T13:41:27;5.07;;;1.50;;
62258;SDS011;48241;48.824;10.102;2022-09-03T13:50:27;1.98;;;0.98;;
62258;SDS011;48241;48.824;10.102;2022-09-03T13:53:03;1.95;;;1.10;;
62258;SDS011;48241;48.824;10.102;2022-09-03T13:55:51;3.05;;;1.20;;
62258;SDS011;48241;48.824;10.102;2022-09-03T13:58:26;2.20;;;1.10;;
62258;SDS011;48241;48.824;10.102;2022-09-03T14:03:47;2.22;;;1.20;;
62258;SDS011;48241;48.824;10.102;2022-09-03T14:06:19;3.25;;;1.02;;
62258;SDS011;48241;48.824;10.102;2022-09-03T14:12:19;1.55;;;0.98;;
62258;SDS011;48241;48.824;10.102;2022-09-03T14:14:57;2.60;;;1.10;;
62258;SDS011;48241;48.824;10.102;2022-09-03T14:17:39;2.47;;;1.33;;
62258;SDS011;48241;48.824;10.102;2022-09-03T14:25:29;4.35;;;1.60;;
62258;SDS011;48241;48.824;10.102;2022-09-03T14:37:03;2.53;;;1.50;;
62258;SDS011;48241;48.824;10.102;2022-09-03T14:39:54;1.52;;;1.00;;
62258;SDS011;48241;48.824;10.102;2022-09-03T14:45:11;1.58;;;1.27;;
62258;SDS011;48241;48.824;10.102;2022-09-03T14:47:50;1.15;;;1.05;;
62258;SDS011;48241;48.824;10.102;2022-09-03T14:56:31;2.33;;;1.40;;
62258;SDS011;48241;48.824;10.102;2022-09-03T15:01:42;3.50;;;2.00;;
62258;SDS011;48241;48.824;10.102;2022-09-03T15:07:35;2.80;;;1.70;;
62258;SDS011;48241;48.824;10.102;2022-09-03T15:10:17;2.63;;;1.77;;
62258;SDS011;48241;48.824;10.102;2022-09-03T15:13:17;2.97;;;1.90;;
62258;SDS011;48241;48.824;10.102;2022-09-03T15:37:29;3.65;;;1.85;;
62258;SDS011;48241;48.824;10.102;2022-09-03T15:45:53;3.80;;;2.08;;
62258;SDS011;48241;48.824;10.102;2022-09-03T15:51:28;3.17;;;1.70;;
62258;SDS011;48241;48.824;10.102;2022-09-03T16:02:19;3.33;;;1.60;;
62258;SDS011;48241;48.824;10.102;2022-09-03T16:12:33;3.03;;;2.00;;
62258;SDS011;48241;48.824;10.102;2022-09-03T16:15:13;3.08;;;2.10;;
62258;SDS011;48241;48.824;10.102;2022-09-03T16:26:19;3.03;;;2.10;;
62258;SDS011;48241;48.824;10.102;2022-09-03T16:29:12;2.22;;;1.60;;
62258;SDS011;48241;48.824;10.102;2022-09-03T16:37:38;2.00;;;1.70;;
62258;SDS011;48241;48.824;10.102;2022-09-03T16:40:21;4.07;;;1.50;;
62258;SDS011;48241;48.824;10.102;2022-09-03T16:43:05;1.73;;;1.52;;
62258;SDS011;48241;48.824;10.102;2022-09-03T16:53:38;1.52;;;1.30;;
62258;SDS011;48241;48.824;10.102;2022-09-03T16:59:40;2.13;;;1.33;;
62258;SDS011;48241;48.824;10.102;2022-09-03T17:10:27;2.05;;;1.10;;
62258;SDS011;48241;48.824;10.102;2022-09-03T17:15:51;1.77;;;1.10;;
62258;SDS011;48241;48.824;10.102;2022-09-03T17:36:35;3.30;;;1.23;;
62258;SDS011;48241;48.824;10.102;2022-09-03T17:50:17;3.63;;;1.30;;
62258;SDS011;48241;48.824;10.102;2022-09-03T17:53:11;2.35;;;1.25;;
62258;SDS011;48241;48.824;10.102;2022-09-03T17:55:43;2.13;;;1.42;;
62258;SDS011;48241;48.824;10.102;2022-09-03T18:03:50;2.95;;;1.42;;
62258;SDS011;48241;48.824;10.102;2022-09-03T18:06:21;3.80;;;1.48;;
62258;SDS011;48241;48.824;10.102;2022-09-03T18:11:38;1.98;;;1.40;;
62258;SDS011;48241;48.824;10.102;2022-09-03T18:19:45;2.22;;;1.50;;
62258;SDS011;48241;48.824;10.102;2022-09-03T18:22:43;2.20;;;1.42;;
62258;SDS011;48241;48.824;10.102;2022-09-03T18:25:57;2.30;;;1.35;;
62258;SDS011;48241;48.824;10.102;2022-09-03T18:28:47;3.45;;;1.63;;
62258;SDS011;48241;48.824;10.102;2022-09-03T18:31:36;2.58;;;1.30;;
62258;SDS011;48241;48.824;10.102;2022-09-03T18:34:23;2.08;;;1.58;;
62258;SDS011;48241;48.824;10.102;2022-09-03T18:37:17;3.25;;;1.38;;
62258;SDS011;48241;48.824;10.102;2022-09-03T18:40:07;1.80;;;1.33;;
62258;SDS011;48241;48.824;10.102;2022-09-03T18:45:56;2.88;;;1.50;;
62258;SDS011;48241;48.824;10.102;2022-09-03T18:51:50;2.25;;;1.42;;
62258;SDS011;48241;48.824;10.102;2022-09-03T19:00:31;2.53;;;1.70;;
62258;SDS011;48241;48.824;10.102;2022-09-03T19:03:34;1.38;;;1.27;;
62258;SDS011;48241;48.824;10.102;2022-09-03T19:06:47;1.63;;;1.50;;
62258;SDS011;48241;48.824;10.102;2022-09-03T19:10:09;3.08;;;1.58;;
62258;SDS011;48241;48.824;10.102;2022-09-03T19:19:07;2.45;;;1.52;;
62258;SDS011;48241;48.824;10.102;2022-09-03T19:22:07;2.72;;;1.60;;
62258;SDS011;48241;48.824;10.102;2022-09-03T19:25:00;1.70;;;1.50;;
62258;SDS011;48241;48.824;10.102;2022-09-03T19:27:54;4.22;;;1.90;;
62258;SDS011;48241;48.824;10.102;2022-09-03T19:33:50;1.50;;;1.40;;
62258;SDS011;48241;48.824;10.102;2022-09-03T19:54:57;1.42;;;1.33;;
62258;SDS011;48241;48.824;10.102;2022-09-03T19:57:42;1.85;;;1.33;;
62258;SDS011;48241;48.824;10.102;2022-09-03T20:00:31;1.55;;;1.42;;
62258;SDS011;48241;48.824;10.102;2022-09-03T20:03:16;1.50;;;1.40;;
62258;SDS011;48241;48.824;10.102;2022-09-03T20:06:01;1.45;;;1.35;;
62258;SDS011;48241;48.824;10.102;2022-09-03T20:08:47;1.45;;;1.35;;
62258;SDS011;48241;48.824;10.102;2022-09-03T20:11:33;1.77;;;1.20;;
62258;SDS011;48241;48.824;10.102;2022-09-03T20:14:02;1.30;;;1.20;;
62258;SDS011;48241;48.824;10.102;2022-09-03T20:16:58;1.55;;;1.40;;
62258;SDS011;48241;48.824;10.102;2022-09-03T20:19:48;1.50;;;1.40;;
62258;SDS011;48241;48.824;10.102;2022-09-03T20:25:36;1.30;;;1.20;;
62258;SDS011;48241;48.824;10.102;2022-09-03T20:28:29;2.30;;;1.17;;
62258;SDS011;48241;48.824;10.102;2022-09-03T20:36:04;1.33;;;1.15;;
62258;SDS011;48241;48.824;10.102;2022-09-03T20:50:17;1.40;;;1.30;;
62258;SDS011;48241;48.824;10.102;2022-09-03T20:52:47;1.50;;;1.35;;
62258;SDS011;48241;48.824;10.102;2022-09-03T20:55:41;2.85;;;1.30;;
62258;SDS011;48241;48.824;10.102;2022-09-03T21:20:15;3.63;;;1.50;;
62258;SDS011;48241;48.824;10.102;2022-09-03T21:23:12;2.55;;;1.40;;
62258;SDS011;48241;48.824;10.102;2022-09-03T21:25:54;2.05;;;1.38;;
62258;SDS011;48241;48.824;10.102;2022-09-03T21:28:38;2.50;;;1.47;;
62258;SDS011;48241;48.824;10.102;2022-09-03T21:31:20;1.73;;;1.48;;
62258;SDS011;48241;48.824;10.102;2022-09-03T21:36:38;2.15;;;1.33;;
62258;SDS011;48241;48.824;10.102;2022-09-03T21:39:19;1.20;;;1.10;;
62258;SDS011;48241;48.824;10.102;2022-09-03T21:41:52;2.30;;;1.38;;
62258;SDS011;48241;48.824;10.102;2022-09-03T21:47:05;2.92;;;1.50;;
62258;SDS011;48241;48.824;10.102;2022-09-03T21:49:48;1.90;;;1.50;;
62258;SDS011;48241;48.824;10.102;2022-09-03T21:55:12;3.60;;;1.50;;
62258;SDS011;48241;48.824;10.102;2022-09-03T22:00:30;1.67;;;1.52;;
62258;SDS011;48241;48.824;10.102;2022-09-03T22:02:57;3.55;;;1.52;;
62258;SDS011;48241;48.824;10.102;2022-09-03T22:05:23;1.67;;;1.40;;
62258;SDS011;48241;48.824;10.102;2022-09-03T22:16:18;3.00;;;1.80;;
62258;SDS011;48241;48.824;10.102;2022-09-03T22:19:13;3.67;;;1.80;;
62258;SDS011;48241;48.824;10.102;2022-09-03T22:32:30;3.45;;;1.50;;
62258;SDS011;48241;48.824;10.102;2022-09-03T22:46:14;1.40;;;1.30;;
62258;SDS011;48241;48.824;10.102;2022-09-03T22:48:50;2.80;;;1.50;;
62258;SDS011;48241;48.824;10.102;2022-09-03T22:51:25;4.63;;;1.55;;
62258;SDS011;48241;48.824;10.102;2022-09-03T22:54:04;2.60;;;1.65;;
62258;SDS011;48241;48.824;10.102;2022-09-03T22:56:44;2.30;;;1.65;;
62258;SDS011;48241;48.824;10.102;2022-09-03T22:59:22;1.83;;;1.50;;
62258;SDS011;48241;48.824;10.102;2022-09-03T23:07:12;2.40;;;1.60;;
62258;SDS011;48241;48.824;10.102;2022-09-03T23:10:05;3.10;;;1.48;;
62258;SDS011;48241;48.824;10.102;2022-09-03T23:15:11;1.98;;;1.60;;
62258;SDS011;48241;48.824;10.102;2022-09-03T23:17:44;3.72;;;1.88;;
62258;SDS011;48241;48.824;10.102;2022-09-03T23:20:19;6.05;;;2.30;;
62258;SDS011;48241;48.824;10.102;2022-09-03T23:23:02;3.40;;;1.80;;
62258;SDS011;48241;48.824;10.102;2022-09-03T23:25:40;2.28;;;1.63;;
62258;SDS011;48241;48.824;10.102;2022-09-03T23:30:53;3.90;;;1.60;;
62258;SDS011;48241;48.824;10.102;2022-09-03T23:33:31;3.25;;;1.98;;
62258;SDS011;48241;48.824;10.102;2022-09-03T23:35:59;3.15;;;1.92;;
62258;SDS011;48241;48.824;10.102;2022-09-03T23:41:12;2.42;;;1.50;;
62258;SDS011;48241;48.824;10.102;2022-09-03T23:46:34;4.05;;;1.90;;
62258;SDS011;48241;48.824;10.102;2022-09-03T23:49:36;5.40;;;2.20;;
62258;SDS011;48241;48.824;10.102;2022-09-03T23:52:14;4.45;;;2.28;;
62258;SDS011;48241;48.824;10.102;2022-09-03T23:57:52;2.85;;;2.00;;
